Time;durP1;ratioP1;P1;durP2;ratioP2;P2;SDS_P1;SDS_P2;PMS_P1;PMS_P2;Temp;Humidity;BMP_temperature;BMP_pressure;BME280_temperature;BME280_humidity;BME280_pressure;Samples;Min_cycle;Max_cycle;Signal;HPM_P1;HPM_P2
2022/11/21 00:01:16;;;;;;;14.73;10.60;;;4.00;69.70;;;6.75;51.92;100465.47;5096630;28;20189;-59
2022/11/21 00:03:43;;;;;;;12.17;10.00;;;4.00;69.60;;;6.80;52.00;100468.44;5096485;28;20248;-58
2022/11/21 00:06:10;;;;;;;16.20;12.03;;;4.00;69.50;;;6.89;51.90;100456.25;5096196;28;20673;-59
2022/11/21 00:08:37;;;;;;;12.67;10.43;;;4.10;69.30;;;6.94;52.03;100455.75;5069243;28;20244;-62
2022/11/21 00:11:04;;;;;;;13.80;11.40;;;4.10;69.20;;;7.01;51.98;100459.38;5054785;28;20219;-60
2022/11/21 00:13:31;;;;;;;15.70;12.37;;;4.20;68.70;;;7.03;50.99;100460.03;5056025;28;20679;-60
2022/11/21 00:16:03;;;;;;;14.83;11.80;;;4.30;68.30;;;7.06;50.96;100462.34;5090653;28;20311;-60
2022/11/21 00:18:32;;;;;;;14.77;11.03;;;4.40;67.60;;;7.06;51.52;100454.50;5094533;28;20199;-60
2022/11/21 00:21:04;;;;;;;14.00;11.77;;;4.30;67.40;;;7.01;50.63;100451.53;5076001;28;20190;-57
2022/11/21 00:23:31;;;;;;;15.77;12.13;;;4.30;67.00;;;6.96;51.25;100457.25;5060510;28;20190;-59
2022/11/21 00:26:03;;;;;;;14.87;11.57;;;4.20;67.30;;;6.90;50.85;100446.56;5054681;28;20249;-59
2022/11/21 00:28:29;;;;;;;14.50;11.47;;;4.20;67.70;;;6.85;50.97;100441.81;5055201;28;20187;-59
2022/11/21 00:30:56;;;;;;;15.03;11.60;;;4.20;68.00;;;6.85;51.28;100438.41;5054612;28;20209;-60
2022/11/21 00:33:24;;;;;;;12.87;10.77;;;4.20;67.70;;;6.82;51.29;100442.94;5055719;28;20182;-61
2022/11/21 00:35:52;;;;;;;14.97;11.47;;;4.10;67.90;;;6.83;51.80;100436.75;5055244;28;20652;-60
2022/11/21 00:38:19;;;;;;;15.63;11.33;;;4.10;68.20;;;6.87;51.72;100444.28;5072540;28;20191;-59
2022/11/21 00:40:46;;;;;;;13.57;10.67;;;4.10;68.40;;;6.92;51.35;100434.97;5075802;28;20202;-59
2022/11/21 00:43:13;;;;;;;12.70;11.20;;;4.20;68.20;;;6.97;51.72;100439.72;5075999;28;20663;-60
2022/11/21 00:45:40;;;;;;;12.87;11.07;;;4.20;68.00;;;7.00;50.55;100427.16;5075295;28;20545;-60
2022/11/21 00:48:07;;;;;;;15.37;11.73;;;4.20;67.70;;;7.03;50.39;100436.50;5075266;28;20200;-58
2022/11/21 00:50:34;;;;;;;13.27;10.70;;;4.20;66.90;;;6.98;50.61;100434.34;5074650;28;20210;-61
2022/11/21 00:53:02;;;;;;;12.87;10.97;;;4.20;66.80;;;6.94;50.86;100432.22;5056414;28;20237;-61
2022/11/21 00:55:29;;;;;;;14.13;11.20;;;4.20;66.80;;;6.86;50.57;100424.34;5055009;28;20186;-60
2022/11/21 00:57:56;;;;;;;14.30;10.87;;;4.10;67.40;;;6.85;51.03;100431.34;5086083;28;20537;-60
2022/11/21 01:00:23;;;;;;;15.60;11.67;;;4.00;68.10;;;6.91;50.93;100437.75;5095296;28;20192;-60
2022/11/21 01:02:50;;;;;;;13.30;10.93;;;4.10;68.20;;;6.96;51.17;100432.88;5095430;28;20715;-59
2022/11/21 01:05:17;;;;;;;13.23;11.20;;;4.10;68.10;;;6.99;50.62;100435.19;5092251;28;20998;-59
2022/11/21 01:07:47;;;;;;;16.13;11.67;;;4.10;67.70;;;7.02;50.45;100435.66;5054562;28;20194;-58
2022/11/21 01:10:15;;;;;;;13.63;11.33;;;4.20;67.80;;;7.09;50.94;100425.38;5054073;28;20254;-59
2022/11/21 01:12:43;;;;;;;13.30;10.73;;;4.20;67.60;;;7.15;50.50;100424.75;5053588;28;20271;-59
2022/11/21 01:15:10;;;;;;;12.70;10.60;;;4.30;67.40;;;7.20;50.04;100427.72;5076023;28;20239;-61
2022/11/21 01:17:37;;;;;;;11.77;10.10;;;4.30;67.00;;;7.20;50.28;100427.72;5095081;28;20192;-57
2022/11/21 01:20:06;;;;;;;15.37;11.57;;;4.40;66.90;;;7.18;50.26;100434.91;5080411;28;20195;-62
2022/11/21 01:22:33;;;;;;;12.50;10.17;;;4.30;65.80;;;7.06;49.71;100441.41;5073393;28;20270;-60
2022/11/21 01:25:00;;;;;;;14.07;10.77;;;4.30;65.30;;;6.90;50.04;100441.34;5074913;28;20194;-59
2022/11/21 01:27:29;;;;;;;13.60;10.67;;;4.10;66.10;;;6.80;50.39;100429.22;5074313;28;20254;-60
2022/11/21 01:29:56;;;;;;;14.83;11.60;;;4.00;66.70;;;6.75;50.56;100439.31;5074224;28;20190;-58
2022/11/21 01:32:23;;;;;;;15.93;11.43;;;3.90;67.20;;;6.73;50.58;100430.81;5073256;28;20219;-60
2022/11/21 01:34:49;;;;;;;14.50;12.27;;;3.90;67.60;;;6.75;51.18;100434.09;5069257;28;20201;-60
2022/11/21 01:37:16;;;;;;;14.07;11.83;;;3.90;67.80;;;6.79;50.96;100434.63;5054239;28;20194;-58
2022/11/21 01:39:43;;;;;;;14.07;11.03;;;4.00;67.50;;;6.82;50.76;100440.34;5073534;28;20673;-58
2022/11/21 01:42:12;;;;;;;11.87;10.23;;;4.00;67.60;;;6.83;51.25;100430.69;5074659;28;20215;-60
2022/11/21 01:44:49;;;;;;;13.00;10.97;;;4.00;67.50;;;6.83;51.16;100441.97;5074045;28;20197;-58
2022/11/21 01:47:17;;;;;;;12.23;10.63;;;4.00;67.50;;;6.86;50.33;100440.03;5074308;28;20641;-58
2022/11/21 01:49:45;;;;;;;13.73;10.90;;;4.00;67.60;;;6.89;50.41;100439.72;5067314;28;20218;-58
2022/11/21 01:52:19;;;;;;;15.70;11.67;;;4.00;67.40;;;6.88;50.94;100438.91;5065193;28;20697;-57
2022/11/21 01:54:53;;;;;;;14.13;11.43;;;4.00;67.40;;;6.89;50.72;100447.56;5073952;28;20191;-58
2022/11/21 01:57:25;;;;;;;13.67;11.53;;;4.00;67.40;;;6.89;50.43;100445.78;5078617;28;20263;-59
2022/11/21 01:59:59;;;;;;;12.13;10.67;;;4.10;67.50;;;6.91;50.59;100443.00;5074685;28;20231;-62
2022/11/21 02:02:30;;;;;;;13.63;10.83;;;4.10;66.90;;;6.88;51.02;100449.34;5074145;28;20216;-60
2022/11/21 02:05:00;;;;;;;15.73;11.37;;;4.10;67.00;;;6.84;50.14;100455.88;5059742;28;20203;-59
2022/11/21 02:07:33;;;;;;;15.77;12.50;;;4.00;66.80;;;6.80;50.32;100452.75;5053757;28;20189;-58
2022/11/21 02:10:03;;;;;;;14.37;11.30;;;4.00;67.40;;;6.78;50.87;100449.47;5054028;28;20277;-59
2022/11/21 02:12:38;;;;;;;13.30;11.30;;;4.00;67.60;;;6.76;50.64;100448.81;5053642;28;20254;-58
2022/11/21 02:15:08;;;;;;;15.03;10.87;;;4.00;67.70;;;6.77;50.94;100445.22;5075208;28;20217;-60
2022/11/21 02:17:35;;;;;;;16.73;11.37;;;4.00;67.60;;;6.79;51.38;100445.06;5094516;28;20715;-59
2022/11/21 02:20:06;;;;;;;14.70;11.77;;;4.00;67.80;;;6.77;51.13;100450.44;5061835;28;20209;-58
2022/11/21 02:22:48;;;;;;;14.70;11.43;;;4.00;67.70;;;6.73;50.48;100441.28;5053743;28;20263;-58
2022/11/21 02:25:19;;;;;;;13.67;10.53;;;3.90;67.20;;;6.67;50.52;100449.75;5054174;28;20527;-57
2022/11/21 02:27:50;;;;;;;14.00;10.50;;;3.90;67.00;;;6.58;51.14;100448.09;5053879;28;20182;-60
2022/11/21 02:30:18;;;;;;;15.10;12.30;;;3.80;66.90;;;6.48;50.79;100446.56;5053374;28;20202;-60
2022/11/21 02:32:46;;;;;;;13.83;10.77;;;3.70;67.00;;;6.38;50.95;100445.84;5055342;28;20267;-60
2022/11/21 02:35:15;;;;;;;14.93;11.60;;;3.60;67.00;;;6.28;50.97;100451.16;5073362;28;20203;-60
2022/11/21 02:37:45;;;;;;;14.30;11.63;;;3.60;67.00;;;6.17;51.42;100448.81;5073380;28;20193;-60
2022/11/21 02:40:21;;;;;;;15.50;12.03;;;3.40;67.40;;;6.06;51.83;100446.47;5073865;28;20193;-60
2022/11/21 02:43:00;;;;;;;15.63;11.73;;;3.30;68.40;;;5.96;51.90;100445.75;5073684;28;20659;-60
2022/11/21 02:45:34;;;;;;;15.80;11.60;;;3.20;68.10;;;5.87;52.14;100451.88;5073402;28;20185;-58
2022/11/21 02:48:01;;;;;;;15.63;12.53;;;3.10;68.40;;;5.80;52.33;100453.41;5064742;28;20204;-60
2022/11/21 02:50:32;;;;;;;15.47;11.10;;;3.00;69.40;;;5.78;52.63;100450.94;5052831;28;20194;-61
2022/11/21 02:53:01;;;;;;;17.13;12.67;;;3.00;71.20;;;5.87;53.35;100450.06;5054144;28;20223;-60
2022/11/21 02:55:29;;;;;;;16.23;12.70;;;3.10;70.60;;;5.95;53.38;100449.31;5057805;28;20191;-60
2022/11/21 02:57:56;;;;;;;15.10;11.87;;;3.10;70.50;;;6.05;53.52;100442.22;5082821;28;20261;-61
2022/11/21 03:00:31;;;;;;;14.73;12.30;;;3.20;70.30;;;6.15;53.29;100450.78;5094245;28;20622;-59
2022/11/21 03:02:58;;;;;;;16.80;12.47;;;3.30;69.80;;;6.24;52.52;100456.88;5067161;28;20227;-60
2022/11/21 03:05:26;;;;;;;16.63;12.60;;;3.40;70.20;;;6.31;52.54;100450.03;5053161;28;20194;-60
2022/11/21 03:07:54;;;;;;;12.87;10.63;;;3.50;69.00;;;6.35;52.22;100446.97;5053145;28;20186;-60
2022/11/21 03:10:21;;;;;;;14.03;11.23;;;3.60;68.90;;;6.40;51.72;100460.41;5052931;28;20245;-60
2022/11/21 03:12:49;;;;;;;15.33;11.03;;;3.60;68.70;;;6.44;52.24;100446.03;5052443;28;20729;-60
2022/11/21 03:15:16;;;;;;;17.07;12.50;;;3.70;68.70;;;6.49;51.22;100449.00;5076323;28;20192;-58
2022/11/21 03:17:48;;;;;;;15.53;11.97;;;3.70;68.50;;;6.52;51.74;100453.09;5079379;28;20202;-60
2022/11/21 03:20:15;;;;;;;19.13;13.03;;;3.80;68.40;;;6.56;51.48;100454.47;5070415;28;20256;-59
2022/11/21 03:22:42;;;;;;;16.47;12.17;;;3.80;68.80;;;6.57;51.97;100451.66;5073096;28;20686;-60
2022/11/21 03:25:09;;;;;;;13.70;11.27;;;3.80;68.30;;;6.60;51.41;100451.38;5073053;28;20231;-60
2022/11/21 03:27:36;;;;;;;14.43;11.23;;;3.80;68.30;;;6.62;51.87;100451.19;5072969;28;20209;-60
2022/11/21 03:30:07;;;;;;;14.30;11.30;;;3.90;68.40;;;6.66;51.46;100455.97;5073030;28;20195;-59
2022/11/21 03:32:34;;;;;;;16.00;12.17;;;3.90;68.10;;;6.66;50.74;100445.50;5070249;28;20237;-60
2022/11/21 03:35:01;;;;;;;13.77;11.13;;;3.90;67.30;;;6.66;51.02;100450.72;5075257;28;20193;-60
2022/11/21 03:37:28;;;;;;;14.87;12.20;;;3.90;66.40;;;6.64;51.03;100457.91;5076449;28;20240;-59
2022/11/21 03:39:55;;;;;;;13.33;11.57;;;3.90;66.90;;;6.64;50.77;100455.31;5077449;28;20197;-59
2022/11/21 03:42:22;;;;;;;15.03;12.13;;;4.00;66.40;;;6.62;50.21;100459.03;5076285;28;20214;-59
2022/11/21 03:44:49;;;;;;;13.57;11.43;;;4.00;66.10;;;6.55;50.89;100464.09;5076408;28;20240;-60
2022/11/21 03:47:17;;;;;;;18.33;12.37;;;3.90;66.20;;;6.48;51.06;100468.28;5071257;28;20217;-60
2022/11/21 03:49:44;;;;;;;14.43;11.17;;;3.80;66.70;;;6.45;51.18;100462.53;5056564;28;20197;-59
2022/11/21 03:52:11;;;;;;;14.37;12.20;;;3.80;66.40;;;6.41;50.98;100463.84;5055866;28;20271;-58
2022/11/21 03:54:38;;;;;;;14.77;11.70;;;3.70;66.80;;;6.41;51.56;100464.66;5056285;28;20199;-59
2022/11/21 03:57:05;;;;;;;16.57;12.20;;;3.80;67.10;;;6.46;50.96;100466.81;5072804;28;20544;-61
2022/11/21 03:59:32;;;;;;;15.07;11.53;;;3.80;66.60;;;6.43;51.19;100465.31;5097311;28;20194;-59
2022/11/21 04:01:59;;;;;;;16.60;12.40;;;3.80;66.30;;;6.38;50.84;100464.97;5063770;28;20230;-60
2022/11/21 04:04:28;;;;;;;17.97;11.43;;;3.70;66.20;;;6.31;50.48;100461.31;5056056;28;20335;-61
2022/11/21 04:06:55;;;;;;;16.07;12.17;;;3.60;66.30;;;6.23;50.68;100457.84;5056110;28;20222;-57
2022/11/21 04:09:22;;;;;;;16.83;12.03;;;3.50;67.00;;;6.20;51.60;100460.75;5055911;28;20717;-60
2022/11/21 04:11:49;;;;;;;16.40;12.73;;;3.50;67.40;;;6.17;50.94;100453.22;5054693;28;20275;-60
2022/11/21 04:14:16;;;;;;;14.77;11.03;;;3.40;67.50;;;6.14;51.24;100455.16;5058551;28;20238;-57
2022/11/21 04:16:43;;;;;;;15.23;11.77;;;3.40;67.40;;;6.14;51.67;100454.34;5069020;28;20664;-59
2022/11/21 04:19:10;;;;;;;16.37;12.27;;;3.40;68.70;;;6.15;52.07;100450.78;5061913;28;20667;-60
2022/11/21 04:21:39;;;;;;;14.90;11.10;;;3.40;68.80;;;6.19;51.98;100444.25;5075780;28;20213;-58
2022/11/21 04:24:07;;;;;;;14.87;11.43;;;3.50;68.40;;;6.25;51.78;100446.28;5075798;28;20195;-60
2022/11/21 04:26:34;;;;;;;15.90;12.37;;;3.50;68.10;;;6.32;50.58;100444.69;5075473;28;20204;-60
2022/11/21 04:29:00;;;;;;;14.27;12.33;;;3.70;67.40;;;6.39;50.71;100448.31;5069420;28;20197;-58
2022/11/21 04:31:28;;;;;;;17.30;12.63;;;3.70;66.80;;;6.43;50.42;100441.78;5055067;28;20244;-59
2022/11/21 04:33:54;;;;;;;15.20;11.63;;;3.80;65.80;;;6.38;50.90;100441.44;5055911;28;20602;-60
2022/11/21 04:36:21;;;;;;;18.00;12.37;;;3.70;66.00;;;6.32;50.35;100447.31;5058212;28;20198;-60
2022/11/21 04:38:50;;;;;;;16.50;12.60;;;3.70;66.50;;;6.28;50.36;100445.94;5057574;28;20264;-60
2022/11/21 04:41:17;;;;;;;14.73;11.90;;;3.60;66.60;;;6.22;51.25;100446.56;5057313;28;20218;-61
2022/11/21 04:43:44;;;;;;;15.43;12.30;;;3.60;66.50;;;6.16;50.43;100446.38;5056383;28;20217;-59
2022/11/21 04:46:11;;;;;;;15.50;12.27;;;3.50;66.60;;;6.09;51.70;100448.75;5059832;28;20193;-58
2022/11/21 04:48:38;;;;;;;14.17;12.07;;;3.40;66.90;;;6.05;50.33;100444.81;5056226;28;20205;-62
2022/11/21 04:51:05;;;;;;;16.60;11.53;;;3.40;66.90;;;5.99;51.08;100446.25;5055697;28;20239;-61
2022/11/21 04:53:32;;;;;;;16.37;11.67;;;3.30;67.50;;;5.95;51.53;100444.09;5057089;28;20268;-58
2022/11/21 04:56:04;;;;;;;18.73;13.07;;;3.30;68.00;;;5.92;52.27;100444.41;5057413;28;20246;-60
2022/11/21 04:58:31;;;;;;;15.67;11.97;;;3.20;68.30;;;5.89;52.14;100455.16;5068318;28;20195;-61
2022/11/21 05:01:06;;;;;;;16.27;11.57;;;3.20;68.00;;;5.86;51.46;100451.06;5076256;28;20189;-60
2022/11/21 05:03:33;;;;;;;14.73;11.40;;;3.20;68.00;;;5.85;51.98;100448.56;5077440;28;20228;-59
2022/11/21 05:06:01;;;;;;;14.70;11.37;;;3.10;68.00;;;5.83;51.82;100466.16;5076385;28;20272;-58
2022/11/21 05:08:28;;;;;;;15.77;12.17;;;3.10;68.50;;;5.81;52.40;100462.88;5074612;28;20243;-60
2022/11/21 05:13:42;;;;;;;15.03;11.70;;;3.10;69.20;;;5.79;52.32;100450.00;5073296;28;20214;-58
2022/11/21 05:16:09;;;;;;;17.27;12.67;;;3.10;68.50;;;5.77;51.46;100446.72;5093119;28;20247;-59
2022/11/21 05:18:36;;;;;;;15.63;12.20;;;3.10;68.10;;;5.73;51.95;100447.97;5093531;28;20193;-56
2022/11/21 05:21:03;;;;;;;16.90;12.33;;;3.00;68.30;;;5.67;52.59;100450.34;5074369;28;20306;-59
2022/11/21 05:23:30;;;;;;;17.77;12.77;;;2.90;69.00;;;5.64;53.00;100450.66;5079444;28;20238;-59
2022/11/21 05:25:57;;;;;;;16.33;12.13;;;2.90;69.50;;;5.58;52.74;100446.03;5071278;28;20191;-60
2022/11/21 05:28:24;;;;;;;16.53;12.30;;;2.80;69.30;;;5.48;52.03;100452.16;5054067;28;20635;-61
2022/11/21 05:30:52;;;;;;;15.17;12.13;;;2.70;69.40;;;5.42;52.92;100447.53;5053327;28;20635;-58
2022/11/21 05:33:20;;;;;;;15.67;12.10;;;2.70;69.90;;;5.39;53.18;100447.84;5054313;28;20646;-59
2022/11/21 05:35:47;;;;;;;17.47;13.17;;;2.60;70.50;;;5.37;54.14;100444.53;5069265;28;20260;-60
2022/11/21 05:38:14;;;;;;;16.40;11.80;;;2.60;71.30;;;5.33;54.25;100443.19;5053776;28;20196;-59
2022/11/21 05:40:41;;;;;;;21.03;13.13;;;2.50;70.60;;;5.24;53.35;100445.88;5053462;28;20595;-59
2022/11/21 05:45:57;;;;;;;18.37;13.33;;;2.40;71.90;;;5.12;54.68;100440.06;5053872;28;20727;-59
2022/11/21 05:48:24;;;;;;;18.13;13.70;;;2.40;72.20;;;5.12;55.17;100434.84;5068911;28;20659;-60
2022/11/21 05:50:51;;;;;;;19.03;13.23;;;2.40;72.50;;;5.12;53.62;100442.66;5073112;28;20193;-59
2022/11/21 05:53:19;;;;;;;20.07;15.40;;;2.40;71.80;;;5.08;55.56;100436.09;5073747;28;20747;-60
2022/11/21 05:55:46;;;;;;;16.43;12.23;;;2.40;72.90;;;5.10;54.87;100449.81;5061706;28;20211;-60
2022/11/21 05:58:14;;;;;;;19.20;13.63;;;2.40;72.40;;;5.10;54.68;100446.38;5089524;28;20194;-60
2022/11/21 06:00:41;;;;;;;18.53;13.27;;;2.40;72.30;;;5.10;54.78;100439.38;5094508;28;20507;-60
2022/11/21 06:03:25;;;;;;;19.60;13.50;;;2.40;72.50;;;5.12;55.17;100439.22;5094059;28;20711;-60
2022/11/21 06:05:59;;;;;;;17.67;13.07;;;2.40;72.50;;;5.08;55.07;100438.72;5092471;28;20193;-59
2022/11/21 06:08:28;;;;;;;19.90;13.37;;;2.30;72.10;;;5.07;54.30;100446.66;5094186;28;20180;-59
2022/11/21 06:10:55;;;;;;;20.83;14.30;;;2.30;71.90;;;4.96;55.02;100444.28;5068610;28;20199;-60
2022/11/21 06:13:23;;;;;;;18.03;13.57;;;2.20;71.60;;;4.90;55.33;100440.44;5054902;28;20553;-59
2022/11/21 06:15:53;;;;;;;17.80;13.93;;;2.10;72.00;;;4.87;55.29;100445.16;5087214;28;20243;-58
2022/11/21 06:18:21;;;;;;;18.20;13.93;;;2.10;72.70;;;4.85;55.69;100445.28;5096504;28;20188;-60
2022/11/21 06:20:49;;;;;;;21.37;13.83;;;2.00;72.90;;;4.86;55.06;100454.75;5077888;28;20202;-59
2022/11/21 06:23:17;;;;;;;21.53;14.60;;;2.00;73.10;;;4.84;55.30;100454.06;5072046;28;20193;-60
2022/11/21 06:25:44;;;;;;;19.40;14.43;;;2.00;73.30;;;4.81;55.75;100451.75;5073853;28;20190;-60
2022/11/21 06:28:11;;;;;;;19.97;13.30;;;2.00;73.40;;;4.81;54.90;100451.75;5074305;28;20190;-60
2022/11/21 06:30:38;;;;;;;17.73;12.93;;;1.90;73.40;;;4.79;55.62;100448.47;5073558;28;20201;-60
2022/11/21 06:33:06;;;;;;;18.67;13.57;;;1.90;73.30;;;4.75;55.96;100437.50;5074036;28;20213;-60
2022/11/21 06:35:37;;;;;;;19.40;14.03;;;1.90;73.60;;;4.73;56.11;100441.25;5072096;28;20591;-60
2022/11/21 06:38:04;;;;;;;18.80;13.10;;;1.90;74.30;;;4.74;55.82;100435.06;5066871;28;20203;-60
2022/11/21 06:40:31;;;;;;;15.57;12.53;;;1.90;74.10;;;4.74;56.40;100440.25;5052877;28;20205;-60
2022/11/21 06:42:59;;;;;;;18.53;13.80;;;1.90;74.20;;;4.74;55.69;100435.06;5053116;28;20221;-60
2022/11/21 06:45:26;;;;;;;21.47;13.63;;;1.90;74.00;;;4.71;55.10;100424.91;5052739;28;20209;-61
2022/11/21 06:47:53;;;;;;;20.53;14.17;;;1.90;73.60;;;4.66;55.75;100411.47;5062865;28;20205;-58
2022/11/21 06:50:20;;;;;;;19.90;14.70;;;1.80;73.30;;;4.61;55.70;100422.34;5073454;28;20220;-61
2022/11/21 06:52:49;;;;;;;24.47;15.60;;;1.80;73.50;;;4.56;55.95;100415.94;5064224;28;20268;-58
2022/11/21 06:55:16;;;;;;;25.73;15.77;;;1.80;73.50;;;4.51;56.70;100423.38;5054032;28;20259;-59
2022/11/21 06:57:43;;;;;;;24.70;14.77;;;1.70;74.00;;;4.51;56.29;100428.56;5081073;28;20215;-60
2022/11/21 07:00:12;;;;;;;23.27;16.10;;;1.70;74.20;;;4.47;55.85;100427.22;5093627;28;20229;-60
2022/11/21 07:02:40;;;;;;;19.83;13.90;;;1.70;73.90;;;4.44;55.46;100432.72;5094035;28;20258;-60
2022/11/21 07:05:08;;;;;;;19.93;14.53;;;1.70;73.70;;;4.42;56.13;100430.25;5091879;28;20638;-60
2022/11/21 07:07:35;;;;;;;18.60;13.80;;;1.70;73.40;;;4.41;55.66;100443.41;5063028;28;20535;-61
2022/11/21 07:10:05;;;;;;;22.30;15.13;;;1.70;73.30;;;4.38;55.41;100448.91;5097853;28;20244;-60
2022/11/21 07:15:19;;;;;;;18.43;14.47;;;1.60;73.10;;;4.18;56.15;100460.34;5092517;28;20196;-59
2022/11/21 07:17:46;;;;;;;19.10;13.97;;;1.50;73.30;;;4.08;55.92;100462.97;5086274;28;20212;-61
2022/11/21 07:20:13;;;;;;;21.20;15.93;;;1.40;73.20;;;4.01;56.62;100462.72;5080492;28;20214;-61
2022/11/21 07:22:40;;;;;;;20.73;14.43;;;1.30;74.20;;;3.92;57.11;100467.94;5078173;28;20225;-59
2022/11/21 07:25:09;;;;;;;21.73;15.27;;;1.30;74.10;;;3.84;56.93;100455.59;5068733;28;20270;-59
2022/11/21 07:27:36;;;;;;;22.50;14.50;;;1.20;74.40;;;3.80;56.92;100453.41;5067751;28;20200;-59
2022/11/21 07:30:04;;;;;;;22.83;15.40;;;1.10;74.40;;;3.79;57.04;100463.00;5057011;28;20186;-60
2022/11/21 07:32:31;;;;;;;26.37;15.37;;;1.10;74.80;;;3.82;57.15;100457.53;5055682;28;20668;-61
2022/11/21 07:34:58;;;;;;;25.20;16.40;;;1.10;75.30;;;3.85;57.66;100457.22;5057386;28;20216;-61
2022/11/21 07:37:26;;;;;;;22.73;16.17;;;1.00;75.40;;;3.85;57.43;100446.81;5076779;28;20588;-60
2022/11/21 07:39:53;;;;;;;27.93;16.67;;;1.00;75.30;;;3.90;57.45;100444.63;5059232;28;20191;-61
2022/11/21 07:42:21;;;;;;;25.67;15.50;;;1.00;75.60;;;3.97;57.59;100435.28;5055806;28;20226;-61
2022/11/21 07:44:48;;;;;;;23.23;15.90;;;1.10;76.20;;;4.10;57.85;100435.84;5057240;28;20229;-60
2022/11/21 07:47:15;;;;;;;21.93;15.97;;;1.20;77.50;;;4.28;57.37;100437.72;5064390;28;20194;-58
2022/11/21 07:49:42;;;;;;;28.33;17.23;;;1.40;77.00;;;4.33;56.57;100430.28;5056408;28;20199;-60
2022/11/21 07:52:09;;;;;;;23.13;15.87;;;1.50;75.40;;;4.33;56.22;100436.31;5059421;28;20222;-59
2022/11/21 07:54:36;;;;;;;22.17;15.27;;;1.50;75.30;;;4.32;55.51;100444.28;5075683;28;20716;-60
2022/11/21 07:57:03;;;;;;;20.90;13.53;;;1.50;74.20;;;4.29;55.69;100454.97;5078320;28;20194;-60
2022/11/21 07:59:31;;;;;;;19.90;13.77;;;1.50;73.70;;;4.30;56.26;100451.41;5077607;28;20678;-59
2022/11/21 08:01:59;;;;;;;26.53;13.70;;;1.50;74.40;;;4.33;55.67;100446.72;5064835;28;20246;-60
2022/11/21 08:04:27;;;;;;;17.70;12.73;;;1.50;73.80;;;4.35;56.44;100444.00;5075325;28;20251;-61
2022/11/21 08:06:54;;;;;;;24.53;15.77;;;1.50;74.00;;;4.43;55.67;100446.69;5064502;28;20198;-61
2022/11/21 08:09:21;;;;;;;19.13;13.90;;;1.60;74.00;;;4.46;55.70;100444.66;5071823;28;20195;-60
2022/11/21 08:11:48;;;;;;;22.23;15.00;;;1.60;73.80;;;4.52;55.29;100445.84;5069525;28;20284;-60
2022/11/21 08:14:15;;;;;;;22.10;14.27;;;1.60;73.80;;;4.55;55.88;100450.78;5078234;28;20214;-62
2022/11/21 08:16:43;;;;;;;22.73;14.93;;;1.70;73.40;;;4.59;55.17;100449.50;5065284;28;20266;-60
2022/11/21 08:19:11;;;;;;;23.63;17.37;;;1.70;73.40;;;4.61;55.09;100442.41;5064413;28;20195;-57
2022/11/21 08:21:38;;;;;;;24.30;15.73;;;1.70;73.70;;;4.61;54.96;100445.78;5056140;28;20659;-61
2022/11/21 08:24:09;;;;;;;27.40;17.00;;;1.70;73.40;;;4.59;54.74;100454.72;5061375;28;20200;-61
2022/11/21 08:26:36;;;;;;;22.63;14.43;;;1.70;72.90;;;4.47;54.29;100453.28;5058413;28;20196;-59
2022/11/21 08:29:03;;;;;;;24.67;16.00;;;1.70;72.50;;;4.33;54.70;100451.09;5055217;28;20240;-60
2022/11/21 08:31:31;;;;;;;29.00;17.60;;;1.60;72.50;;;4.17;55.25;100448.28;5055577;28;20226;-58
2022/11/21 08:33:59;;;;;;;30.93;18.93;;;1.50;72.90;;;4.05;56.04;100451.06;5055433;28;20232;-58
2022/11/21 08:36:28;;;;;;;21.37;14.40;;;1.40;73.20;;;4.06;56.24;100444.88;5059203;28;20195;-60
2022/11/21 08:38:56;;;;;;;28.77;18.30;;;1.30;73.70;;;4.16;57.40;100449.25;5056704;28;20202;-61
2022/11/21 08:44:08;;;;;;;28.83;16.57;;;1.40;75.10;;;4.17;56.91;100453.50;5055733;28;20213;-59
2022/11/21 08:46:40;;;;;;;25.27;17.50;;;1.40;74.40;;;4.09;56.53;100447.19;5064375;28;20204;-59
2022/11/21 08:49:09;;;;;;;24.00;16.57;;;1.40;74.20;;;4.07;57.42;100441.31;5076210;28;20542;-60
2022/11/21 08:51:36;;;;;;;22.83;15.97;;;1.40;74.70;;;4.11;57.52;100453.09;5070595;28;20272;-59
2022/11/21 08:54:03;;;;;;;23.43;15.13;;;1.40;74.60;;;4.18;57.09;100447.34;5070936;28;20253;-58
2022/11/21 08:56:30;;;;;;;23.03;16.17;;;1.40;74.80;;;4.16;56.37;100447.44;5082887;28;20217;-60
2022/11/21 08:58:57;;;;;;;23.90;15.90;;;1.40;75.00;;;4.17;56.43;100456.09;5099394;28;20200;-60
2022/11/21 09:01:24;;;;;;;19.37;14.43;;;1.40;75.00;;;4.19;56.74;100452.38;5087217;28;20597;-59
2022/11/21 09:03:51;;;;;;;27.00;17.43;;;1.40;74.90;;;4.25;57.72;100458.81;5056151;28;20187;-59
2022/11/21 09:06:20;;;;;;;24.97;18.23;;;1.40;75.60;;;4.25;56.75;100458.81;5055869;28;20257;-60
2022/11/21 09:08:47;;;;;;;25.73;15.83;;;1.40;75.70;;;4.26;57.04;100457.84;5055077;28;20588;-58
2022/11/21 09:11:14;;;;;;;22.93;16.93;;;1.50;75.70;;;4.29;57.37;100452.38;5065259;28;20244;-61
2022/11/21 09:13:41;;;;;;;24.33;16.57;;;1.50;75.80;;;4.36;57.32;100450.84;5065946;28;20217;-59
2022/11/21 09:18:56;;;;;;;24.93;17.17;;;1.60;76.00;;;4.51;57.67;100439.81;5075739;28;20205;-59
2022/11/21 09:21:24;;;;;;;23.60;17.17;;;1.60;76.40;;;4.61;57.40;100447.59;5070471;28;20241;-60
2022/11/21 09:23:51;;;;;;;23.23;17.17;;;1.70;76.20;;;4.68;57.48;100440.84;5066919;28;20642;-58
2022/11/21 09:26:19;;;;;;;24.07;16.70;;;1.80;76.00;;;4.73;57.61;100438.63;5061436;28;20194;-61
2022/11/21 09:28:49;;;;;;;23.67;17.17;;;1.80;75.80;;;4.72;57.31;100437.00;5073341;28;20190;-61
2022/11/21 09:31:17;;;;;;;24.47;17.57;;;1.90;76.50;;;4.73;56.83;100433.44;5069707;28;20706;-61
2022/11/21 09:33:44;;;;;;;27.00;17.17;;;1.90;75.60;;;4.77;57.35;100422.56;5057124;28;20282;-59
2022/11/21 09:36:13;;;;;;;22.77;16.77;;;2.00;75.70;;;4.89;57.46;100423.19;5058427;28;20194;-57
2022/11/21 09:38:42;;;;;;;22.40;16.00;;;2.00;75.90;;;5.09;57.33;100419.47;5075841;28;20189;-61
2022/11/21 09:44:45;;;;;;;22.93;15.83;;;2.20;75.90;;;5.37;56.28;100421.06;5073825;28;20199;-60
2022/11/21 09:47:22;;;;;;;25.67;17.37;;;2.40;75.90;;;5.56;56.84;100414.88;5060283;28;20199;-63
2022/11/21 09:49:58;;;;;;;23.30;16.83;;;2.50;75.70;;;5.83;55.90;100413.94;5066313;28;20561;-60
2022/11/21 09:52:36;;;;;;;21.43;16.00;;;2.70;75.40;;;6.09;54.92;100412.19;5067120;28;20216;-59
2022/11/21 09:55:16;;;;;;;21.40;15.93;;;3.00;75.20;;;6.45;54.74;100411.09;5071789;28;20225;-60
2022/11/21 09:57:48;;;;;;;20.73;15.70;;;3.20;75.40;;;6.72;54.34;100408.28;5070201;28;22235;-59
2022/11/21 10:00:20;;;;;;;24.50;17.57;;;3.50;74.20;;;7.01;53.22;100413.13;5072775;28;20211;-60
2022/11/21 10:02:48;;;;;;;21.17;16.00;;;3.70;73.00;;;7.47;52.45;100406.47;5058921;28;20231;-58
2022/11/21 10:05:22;;;;;;;21.53;16.03;;;3.90;72.50;;;7.98;50.33;100410.56;5073936;28;20207;-59
2022/11/21 10:08:07;;;;;;;19.20;14.93;;;4.10;71.20;;;8.29;49.66;100405.44;5053267;28;20194;-58
2022/11/21 10:10:53;;;;;;;17.60;14.63;;;4.50;70.50;;;8.50;49.51;100405.72;5073839;28;20187;-61
2022/11/21 10:13:37;;;;;;;19.10;15.13;;;4.80;69.50;;;8.63;49.30;100398.94;5072398;28;20681;-61
2022/11/21 10:16:17;;;;;;;18.20;15.73;;;5.10;68.60;;;8.75;48.54;100407.22;5062689;28;20201;-60
2022/11/21 10:19:16;;;;;;;19.03;14.47;;;5.40;67.50;;;8.71;48.30;100400.69;5059923;28;20615;-60
2022/11/21 10:22:28;;;;;;;20.87;15.87;;;5.60;66.70;;;8.68;48.95;100393.16;5065874;28;20283;-61
2022/11/21 10:25:02;;;;;;;19.43;15.03;;;5.70;66.60;;;8.76;48.68;100403.63;5048185;28;20197;-66
2022/11/21 10:27:37;;;;;;;18.07;14.57;;;5.70;66.20;;;8.72;48.77;100389.22;5063162;28;20198;-60
2022/11/21 10:30:14;;;;;;;19.60;15.17;;;5.70;66.00;;;8.65;48.99;100396.16;5063985;28;20200;-60
2022/11/21 10:32:46;;;;;;;18.97;14.47;;;5.70;66.00;;;8.58;49.25;100389.94;5071489;28;20232;-62
2022/11/21 10:35:19;;;;;;;21.30;14.80;;;5.70;66.10;;;8.56;49.24;100390.09;5062270;28;20255;-62
2022/11/21 10:37:52;;;;;;;18.30;13.87;;;5.70;66.30;;;8.46;49.32;100380.81;5080931;28;20196;-60